sensor_id;sensor_type;location;lat;lon;timestamp;temperature;humidity
29575;DHT22;16507;51.046;6.406;2023-03-01T00:01:25;-1.00;1.00
29575;DHT22;16507;51.046;6.406;2023-03-01T00:03:52;-1.00;1.00
29575;DHT22;16507;51.046;6.406;2023-03-01T00:06:19;-1.10;1.00
29575;DHT22;16507;51.046;6.406;2023-03-01T00:08:45;-0.90;1.00
29575;DHT22;16507;51.046;6.406;2023-03-01T00:11:19;-0.80;99.90
29575;DHT22;16507;51.046;6.406;2023-03-01T00:13:46;-0.80;99.90
29575;DHT22;16507;51.046;6.406;2023-03-01T00:16:15;-0.90;99.90
29575;DHT22;16507;51.046;6.406;2023-03-01T00:18:41;-0.90;99.90
29575;DHT22;16507;51.046;6.406;2023-03-01T00:21:07;-0.90;1.00
29575;DHT22;16507;51.046;6.406;2023-03-01T00:23:37;-0.90;1.00
29575;DHT22;16507;51.046;6.406;2023-03-01T00:26:06;-1.00;1.00
29575;DHT22;16507;51.046;6.406;2023-03-01T00:28:32;-1.10;1.00
29575;DHT22;16507;51.046;6.406;2023-03-01T00:31:03;-1.20;1.00
29575;DHT22;16507;51.046;6.406;2023-03-01T00:33:29;-1.20;99.90
29575;DHT22;16507;51.046;6.406;2023-03-01T00:35:58;-1.30;1.00
29575;DHT22;16507;51.046;6.406;2023-03-01T00:38:23;-1.30;1.00
29575;DHT22;16507;51.046;6.406;2023-03-01T00:40:49;-1.40;99.90
29575;DHT22;16507;51.046;6.406;2023-03-01T00:43:15;-1.50;99.90
29575;DHT22;16507;51.046;6.406;2023-03-01T00:45:41;-1.60;99.90
29575;DHT22;16507;51.046;6.406;2023-03-01T00:48:06;-1.60;1.00
29575;DHT22;16507;51.046;6.406;2023-03-01T00:50:32;-1.50;1.00
29575;DHT22;16507;51.046;6.406;2023-03-01T00:52:57;-1.50;99.90
29575;DHT22;16507;51.046;6.406;2023-03-01T00:55:24;-1.50;99.90
29575;DHT22;16507;51.046;6.406;2023-03-01T00:57:50;-1.40;99.90
29575;DHT22;16507;51.046;6.406;2023-03-01T01:00:16;-1.30;1.00
29575;DHT22;16507;51.046;6.406;2023-03-01T01:02:42;-1.30;99.90
29575;DHT22;16507;51.046;6.406;2023-03-01T01:05:07;-1.30;99.90
29575;DHT22;16507;51.046;6.406;2023-03-01T01:07:33;-1.30;99.90
29575;DHT22;16507;51.046;6.406;2023-03-01T01:09:59;-1.40;99.90
29575;DHT22;16507;51.046;6.406;2023-03-01T01:12:25;-1.50;1.00
29575;DHT22;16507;51.046;6.406;2023-03-01T01:14:50;-1.50;98.70
29575;DHT22;16507;51.046;6.406;2023-03-01T01:17:16;-1.60;99.90
29575;DHT22;16507;51.046;6.406;2023-03-01T01:19:41;-1.60;99.90
29575;DHT22;16507;51.046;6.406;2023-03-01T01:22:07;-1.60;1.00
29575;DHT22;16507;51.046;6.406;2023-03-01T01:24:33;-1.60;99.90
29575;DHT22;16507;51.046;6.406;2023-03-01T01:26:58;-1.70;99.90
29575;DHT22;16507;51.046;6.406;2023-03-01T01:29:24;-1.60;1.00
29575;DHT22;16507;51.046;6.406;2023-03-01T01:31:50;-1.50;1.00
29575;DHT22;16507;51.046;6.406;2023-03-01T01:34:22;-1.60;1.00
29575;DHT22;16507;51.046;6.406;2023-03-01T01:36:49;-1.60;99.90
29575;DHT22;16507;51.046;6.406;2023-03-01T01:39:15;-1.60;99.90
29575;DHT22;16507;51.046;6.406;2023-03-01T01:41:41;-1.70;1.00
29575;DHT22;16507;51.046;6.406;2023-03-01T01:44:20;-1.70;99.90
29575;DHT22;16507;51.046;6.406;2023-03-01T01:52:18;-1.70;99.90
29575;DHT22;16507;51.046;6.406;2023-03-01T01:54:56;-1.80;1.00
29575;DHT22;16507;51.046;6.406;2023-03-01T01:57:30;-1.80;1.00
29575;DHT22;16507;51.046;6.406;2023-03-01T02:00:00;-1.90;99.90
29575;DHT22;16507;51.046;6.406;2023-03-01T02:02:28;-1.90;1.00
29575;DHT22;16507;51.046;6.406;2023-03-01T02:05:09;-1.90;99.90
29575;DHT22;16507;51.046;6.406;2023-03-01T02:07:38;-1.90;99.90
29575;DHT22;16507;51.046;6.406;2023-03-01T02:10:05;-1.90;99.90
29575;DHT22;16507;51.046;6.406;2023-03-01T02:12:32;-1.90;99.90
29575;DHT22;16507;51.046;6.406;2023-03-01T02:14:58;-1.80;99.90
29575;DHT22;16507;51.046;6.406;2023-03-01T02:17:24;-1.80;1.00
29575;DHT22;16507;51.046;6.406;2023-03-01T02:22:28;-2.00;8.00
29575;DHT22;16507;51.046;6.406;2023-03-01T02:30:40;-2.20;1.00
29575;DHT22;16507;51.046;6.406;2023-03-01T02:33:26;-2.30;1.00
29575;DHT22;16507;51.046;6.406;2023-03-01T02:35:53;-2.40;1.00
29575;DHT22;16507;51.046;6.406;2023-03-01T02:38:20;-2.40;1.00
29575;DHT22;16507;51.046;6.406;2023-03-01T02:40:46;-2.50;1.00
29575;DHT22;16507;51.046;6.406;2023-03-01T02:43:12;-2.40;1.00
29575;DHT22;16507;51.046;6.406;2023-03-01T02:45:47;-2.40;1.00
29575;DHT22;16507;51.046;6.406;2023-03-01T02:48:13;-2.40;1.00
29575;DHT22;16507;51.046;6.406;2023-03-01T02:53:45;-2.40;1.00
29575;DHT22;16507;51.046;6.406;2023-03-01T02:56:14;-2.50;1.00
29575;DHT22;16507;51.046;6.406;2023-03-01T02:58:43;-2.50;1.00
29575;DHT22;16507;51.046;6.406;2023-03-01T03:01:17;-2.50;1.00
29575;DHT22;16507;51.046;6.406;2023-03-01T03:03:43;-2.50;1.00
29575;DHT22;16507;51.046;6.406;2023-03-01T03:06:09;-2.50;1.00
29575;DHT22;16507;51.046;6.406;2023-03-01T03:08:35;-2.50;1.00
29575;DHT22;16507;51.046;6.406;2023-03-01T03:11:00;-2.50;1.00
29575;DHT22;16507;51.046;6.406;2023-03-01T03:13:26;-2.40;1.00
29575;DHT22;16507;51.046;6.406;2023-03-01T03:15:57;-2.50;1.00
29575;DHT22;16507;51.046;6.406;2023-03-01T03:18:24;-2.40;1.00
29575;DHT22;16507;51.046;6.406;2023-03-01T03:20:53;-2.40;1.00
29575;DHT22;16507;51.046;6.406;2023-03-01T03:23:20;-2.40;1.00
29575;DHT22;16507;51.046;6.406;2023-03-01T03:25:49;-2.30;1.00
29575;DHT22;16507;51.046;6.406;2023-03-01T03:28:15;-2.30;1.00
29575;DHT22;16507;51.046;6.406;2023-03-01T03:30:43;-2.40;1.00
29575;DHT22;16507;51.046;6.406;2023-03-01T03:33:12;-2.40;1.00
29575;DHT22;16507;51.046;6.406;2023-03-01T03:35:49;-2.50;1.00
29575;DHT22;16507;51.046;6.406;2023-03-01T03:38:17;-2.60;1.00
29575;DHT22;16507;51.046;6.406;2023-03-01T03:40:46;-2.70;1.00
29575;DHT22;16507;51.046;6.406;2023-03-01T03:43:14;-2.70;1.00
29575;DHT22;16507;51.046;6.406;2023-03-01T03:45:40;-2.60;1.00
29575;DHT22;16507;51.046;6.406;2023-03-01T03:48:08;-2.50;1.00
29575;DHT22;16507;51.046;6.406;2023-03-01T03:50:34;-2.50;1.00
29575;DHT22;16507;51.046;6.406;2023-03-01T03:53:01;-2.50;1.00
29575;DHT22;16507;51.046;6.406;2023-03-01T03:55:27;-2.60;1.00
29575;DHT22;16507;51.046;6.406;2023-03-01T03:57:58;-2.60;1.00
29575;DHT22;16507;51.046;6.406;2023-03-01T04:00:27;-2.70;1.00
29575;DHT22;16507;51.046;6.406;2023-03-01T04:02:53;-2.70;1.00
29575;DHT22;16507;51.046;6.406;2023-03-01T04:05:24;-2.80;1.00
29575;DHT22;16507;51.046;6.406;2023-03-01T04:07:49;-2.80;1.00
29575;DHT22;16507;51.046;6.406;2023-03-01T04:10:26;-2.80;1.00
29575;DHT22;16507;51.046;6.406;2023-03-01T04:12:52;-2.90;1.00
29575;DHT22;16507;51.046;6.406;2023-03-01T04:15:18;-2.90;1.00
29575;DHT22;16507;51.046;6.406;2023-03-01T04:17:46;-2.80;1.00
29575;DHT22;16507;51.046;6.406;2023-03-01T04:20:14;-2.80;1.00
29575;DHT22;16507;51.046;6.406;2023-03-01T04:22:43;-2.80;1.00
29575;DHT22;16507;51.046;6.406;2023-03-01T04:25:12;-2.80;1.00
29575;DHT22;16507;51.046;6.406;2023-03-01T04:27:39;-2.80;1.00
29575;DHT22;16507;51.046;6.406;2023-03-01T04:30:05;-2.90;1.00
29575;DHT22;16507;51.046;6.406;2023-03-01T04:32:31;-2.90;1.00
29575;DHT22;16507;51.046;6.406;2023-03-01T04:34:57;-3.00;1.00
29575;DHT22;16507;51.046;6.406;2023-03-01T04:37:23;-2.90;4.60
29575;DHT22;16507;51.046;6.406;2023-03-01T04:39:49;-2.90;6.80
29575;DHT22;16507;51.046;6.406;2023-03-01T04:42:15;-3.10;3.50
29575;DHT22;16507;51.046;6.406;2023-03-01T04:44:42;-3.10;18.80
29575;DHT22;16507;51.046;6.406;2023-03-01T04:47:08;-3.20;25.00
29575;DHT22;16507;51.046;6.406;2023-03-01T04:49:33;-3.20;32.30
29575;DHT22;16507;51.046;6.406;2023-03-01T04:51:59;-3.20;58.40
29575;DHT22;16507;51.046;6.406;2023-03-01T04:54:31;-3.10;84.20
29575;DHT22;16507;51.046;6.406;2023-03-01T04:56:58;-3.10;99.90
29575;DHT22;16507;51.046;6.406;2023-03-01T04:59:24;-3.00;99.90
29575;DHT22;16507;51.046;6.406;2023-03-01T05:01:50;-3.00;99.90
29575;DHT22;16507;51.046;6.406;2023-03-01T05:04:16;-3.00;99.90
29575;DHT22;16507;51.046;6.406;2023-03-01T05:06:42;-3.00;99.90
29575;DHT22;16507;51.046;6.406;2023-03-01T05:09:07;-2.80;99.90
29575;DHT22;16507;51.046;6.406;2023-03-01T05:11:33;-2.70;99.90
29575;DHT22;16507;51.046;6.406;2023-03-01T05:14:10;-2.70;99.90
29575;DHT22;16507;51.046;6.406;2023-03-01T05:16:36;-2.60;99.90
29575;DHT22;16507;51.046;6.406;2023-03-01T05:19:03;-2.70;99.90
29575;DHT22;16507;51.046;6.406;2023-03-01T05:21:38;-2.80;99.90
29575;DHT22;16507;51.046;6.406;2023-03-01T05:24:27;-2.90;99.90
29575;DHT22;16507;51.046;6.406;2023-03-01T05:26:53;-3.00;99.90
29575;DHT22;16507;51.046;6.406;2023-03-01T05:29:20;-3.00;99.90
29575;DHT22;16507;51.046;6.406;2023-03-01T05:31:54;-3.00;99.90
29575;DHT22;16507;51.046;6.406;2023-03-01T05:34:28;-3.00;99.90
29575;DHT22;16507;51.046;6.406;2023-03-01T05:36:55;-3.00;99.90
29575;DHT22;16507;51.046;6.406;2023-03-01T05:39:21;-3.10;99.90
29575;DHT22;16507;51.046;6.406;2023-03-01T05:41:48;-3.10;99.90
29575;DHT22;16507;51.046;6.406;2023-03-01T05:44:17;-3.10;99.90
29575;DHT22;16507;51.046;6.406;2023-03-01T05:46:42;-3.10;99.90
29575;DHT22;16507;51.046;6.406;2023-03-01T05:49:08;-3.00;99.90
29575;DHT22;16507;51.046;6.406;2023-03-01T05:51:33;-2.90;99.90
29575;DHT22;16507;51.046;6.406;2023-03-01T05:53:59;-2.80;99.90
29575;DHT22;16507;51.046;6.406;2023-03-01T05:56:25;-2.90;99.90
29575;DHT22;16507;51.046;6.406;2023-03-01T05:58:51;-2.90;99.90
29575;DHT22;16507;51.046;6.406;2023-03-01T06:01:19;-2.90;99.90
29575;DHT22;16507;51.046;6.406;2023-03-01T06:03:44;-3.00;99.90
29575;DHT22;16507;51.046;6.406;2023-03-01T06:06:10;-3.10;99.90
29575;DHT22;16507;51.046;6.406;2023-03-01T06:08:36;-3.20;99.90
29575;DHT22;16507;51.046;6.406;2023-03-01T06:11:01;-3.20;99.90
29575;DHT22;16507;51.046;6.406;2023-03-01T06:13:27;-3.20;99.90
29575;DHT22;16507;51.046;6.406;2023-03-01T06:15:52;-3.20;99.90
29575;DHT22;16507;51.046;6.406;2023-03-01T06:18:18;-3.20;99.90
29575;DHT22;16507;51.046;6.406;2023-03-01T06:20:43;-3.20;99.90
29575;DHT22;16507;51.046;6.406;2023-03-01T06:23:09;-3.30;99.90
29575;DHT22;16507;51.046;6.406;2023-03-01T06:25:34;-3.40;99.90
29575;DHT22;16507;51.046;6.406;2023-03-01T06:28:00;-3.40;99.90
29575;DHT22;16507;51.046;6.406;2023-03-01T06:30:26;-3.50;99.90
29575;DHT22;16507;51.046;6.406;2023-03-01T06:32:52;-3.40;99.90
29575;DHT22;16507;51.046;6.406;2023-03-01T06:35:19;-3.40;99.90
29575;DHT22;16507;51.046;6.406;2023-03-01T06:37:46;-3.40;99.90
29575;DHT22;16507;51.046;6.406;2023-03-01T06:40:12;-3.40;99.90
29575;DHT22;16507;51.046;6.406;2023-03-01T06:42:42;-3.40;99.90
29575;DHT22;16507;51.046;6.406;2023-03-01T06:45:09;-3.40;99.90
29575;DHT22;16507;51.046;6.406;2023-03-01T06:47:34;-3.30;99.90
29575;DHT22;16507;51.046;6.406;2023-03-01T06:50:01;-3.20;99.90
29575;DHT22;16507;51.046;6.406;2023-03-01T06:52:27;-3.10;99.90
29575;DHT22;16507;51.046;6.406;2023-03-01T06:54:53;-2.90;99.90
29575;DHT22;16507;51.046;6.406;2023-03-01T06:57:18;-2.70;99.90
29575;DHT22;16507;51.046;6.406;2023-03-01T06:59:44;-2.10;99.90
29575;DHT22;16507;51.046;6.406;2023-03-01T07:02:13;-1.70;99.90
29575;DHT22;16507;51.046;6.406;2023-03-01T07:04:40;-1.30;99.90
29575;DHT22;16507;51.046;6.406;2023-03-01T07:07:06;-1.00;99.90
29575;DHT22;16507;51.046;6.406;2023-03-01T07:09:32;-0.90;99.90
29575;DHT22;16507;51.046;6.406;2023-03-01T07:11:58;-1.30;99.90
29575;DHT22;16507;51.046;6.406;2023-03-01T07:14:23;-1.80;99.90
29575;DHT22;16507;51.046;6.406;2023-03-01T07:16:55;-1.90;99.90
29575;DHT22;16507;51.046;6.406;2023-03-01T07:19:21;-1.40;99.90
29575;DHT22;16507;51.046;6.406;2023-03-01T07:21:47;-0.50;99.90
29575;DHT22;16507;51.046;6.406;2023-03-01T07:24:12;0.60;99.30
29575;DHT22;16507;51.046;6.406;2023-03-01T07:26:38;1.20;87.60
29575;DHT22;16507;51.046;6.406;2023-03-01T07:29:06;1.40;79.90
29575;DHT22;16507;51.046;6.406;2023-03-01T07:31:32;1.90;76.70
29575;DHT22;16507;51.046;6.406;2023-03-01T07:33:58;2.20;72.60
29575;DHT22;16507;51.046;6.406;2023-03-01T07:36:24;2.60;66.80
29575;DHT22;16507;51.046;6.406;2023-03-01T07:38:50;2.30;66.50
29575;DHT22;16507;51.046;6.406;2023-03-01T07:41:16;0.80;84.20
29575;DHT22;16507;51.046;6.406;2023-03-01T07:43:41;-0.30;1.00
29575;DHT22;16507;51.046;6.406;2023-03-01T07:46:07;-0.70;1.00
29575;DHT22;16507;51.046;6.406;2023-03-01T07:48:33;-0.30;1.00
29575;DHT22;16507;51.046;6.406;2023-03-01T07:51:00;-0.90;1.00
29575;DHT22;16507;51.046;6.406;2023-03-01T07:53:26;-1.10;1.00
29575;DHT22;16507;51.046;6.406;2023-03-01T07:56:09;-1.20;99.90
29575;DHT22;16507;51.046;6.406;2023-03-01T07:58:39;-1.30;99.90
29575;DHT22;16507;51.046;6.406;2023-03-01T08:01:07;-1.30;1.00
29575;DHT22;16507;51.046;6.406;2023-03-01T08:03:34;-1.20;99.90
29575;DHT22;16507;51.046;6.406;2023-03-01T08:06:01;-1.10;1.00
29575;DHT22;16507;51.046;6.406;2023-03-01T08:08:27;-1.10;99.90
29575;DHT22;16507;51.046;6.406;2023-03-01T08:10:56;-1.10;99.90
29575;DHT22;16507;51.046;6.406;2023-03-01T08:13:22;-1.00;99.90
29575;DHT22;16507;51.046;6.406;2023-03-01T08:15:51;-0.90;99.90
29575;DHT22;16507;51.046;6.406;2023-03-01T08:18:17;-0.80;99.90
29575;DHT22;16507;51.046;6.406;2023-03-01T08:20:43;-0.80;1.00
29575;DHT22;16507;51.046;6.406;2023-03-01T08:23:10;-0.80;1.00
29575;DHT22;16507;51.046;6.406;2023-03-01T08:25:36;-0.80;1.00
29575;DHT22;16507;51.046;6.406;2023-03-01T08:28:01;-0.70;85.90
29575;DHT22;16507;51.046;6.406;2023-03-01T08:30:27;-0.70;99.90
29575;DHT22;16507;51.046;6.406;2023-03-01T08:32:53;-0.60;1.00
29575;DHT22;16507;51.046;6.406;2023-03-01T08:35:19;-0.60;1.00
29575;DHT22;16507;51.046;6.406;2023-03-01T08:37:45;-0.60;99.90
29575;DHT22;16507;51.046;6.406;2023-03-01T08:40:11;-0.40;47.30
29575;DHT22;16507;51.046;6.406;2023-03-01T08:42:39;-0.30;1.00
29575;DHT22;16507;51.046;6.406;2023-03-01T08:45:05;-0.20;99.90
29575;DHT22;16507;51.046;6.406;2023-03-01T08:47:31;-0.10;99.90
29575;DHT22;16507;51.046;6.406;2023-03-01T08:49:59;-0.10;1.00
29575;DHT22;16507;51.046;6.406;2023-03-01T08:52:24;-0.10;1.00
29575;DHT22;16507;51.046;6.406;2023-03-01T08:54:52;0.10;1.00
29575;DHT22;16507;51.046;6.406;2023-03-01T08:57:18;0.20;52.30
29575;DHT22;16507;51.046;6.406;2023-03-01T08:59:44;0.10;61.00
29575;DHT22;16507;51.046;6.406;2023-03-01T09:02:15;0.30;1.00
29575;DHT22;16507;51.046;6.406;2023-03-01T09:04:41;0.40;1.00
29575;DHT22;16507;51.046;6.406;2023-03-01T09:07:08;0.50;1.00
29575;DHT22;16507;51.046;6.406;2023-03-01T09:09:34;0.60;1.00
29575;DHT22;16507;51.046;6.406;2023-03-01T09:12:00;0.60;99.90
29575;DHT22;16507;51.046;6.406;2023-03-01T09:14:27;0.60;1.00
29575;DHT22;16507;51.046;6.406;2023-03-01T09:16:53;0.80;99.90
29575;DHT22;16507;51.046;6.406;2023-03-01T09:19:18;0.90;1.00
29575;DHT22;16507;51.046;6.406;2023-03-01T09:21:44;1.10;1.00
29575;DHT22;16507;51.046;6.406;2023-03-01T09:24:19;1.30;1.00
29575;DHT22;16507;51.046;6.406;2023-03-01T09:26:45;1.30;96.80
29575;DHT22;16507;51.046;6.406;2023-03-01T09:29:14;1.30;98.70
29575;DHT22;16507;51.046;6.406;2023-03-01T09:31:41;1.30;94.00
29575;DHT22;16507;51.046;6.406;2023-03-01T09:34:07;1.30;96.70
29575;DHT22;16507;51.046;6.406;2023-03-01T09:36:33;1.50;94.40
29575;DHT22;16507;51.046;6.406;2023-03-01T09:38:59;1.50;92.20
29575;DHT22;16507;51.046;6.406;2023-03-01T09:41:52;1.50;91.80
29575;DHT22;16507;51.046;6.406;2023-03-01T09:47:01;1.50;91.30
29575;DHT22;16507;51.046;6.406;2023-03-01T09:49:29;1.60;92.70
29575;DHT22;16507;51.046;6.406;2023-03-01T09:54:21;2.10;92.80
29575;DHT22;16507;51.046;6.406;2023-03-01T09:57:18;2.10;88.40
29575;DHT22;16507;51.046;6.406;2023-03-01T10:02:47;2.10;78.50
29575;DHT22;16507;51.046;6.406;2023-03-01T10:05:33;2.20;79.00
29575;DHT22;16507;51.046;6.406;2023-03-01T10:10:56;2.60;78.60
29575;DHT22;16507;51.046;6.406;2023-03-01T10:13:44;2.60;82.80
29575;DHT22;16507;51.046;6.406;2023-03-01T10:16:17;2.70;75.50
29575;DHT22;16507;51.046;6.406;2023-03-01T10:18:51;2.80;77.60
29575;DHT22;16507;51.046;6.406;2023-03-01T10:21:19;3.10;81.90
29575;DHT22;16507;51.046;6.406;2023-03-01T10:23:46;3.00;72.60
29575;DHT22;16507;51.046;6.406;2023-03-01T10:26:42;3.10;72.80
29575;DHT22;16507;51.046;6.406;2023-03-01T10:29:11;3.10;65.10
29575;DHT22;16507;51.046;6.406;2023-03-01T10:31:48;3.30;65.20
29575;DHT22;16507;51.046;6.406;2023-03-01T10:34:20;3.40;69.50
29575;DHT22;16507;51.046;6.406;2023-03-01T10:36:50;3.50;61.90
29575;DHT22;16507;51.046;6.406;2023-03-01T10:39:19;3.70;59.40
29575;DHT22;16507;51.046;6.406;2023-03-01T10:41:59;3.80;58.10
29575;DHT22;16507;51.046;6.406;2023-03-01T10:44:47;3.90;55.30
29575;DHT22;16507;51.046;6.406;2023-03-01T10:47:24;4.20;57.20
29575;DHT22;16507;51.046;6.406;2023-03-01T10:50:20;4.30;56.70
29575;DHT22;16507;51.046;6.406;2023-03-01T10:52:58;4.20;53.40
29575;DHT22;16507;51.046;6.406;2023-03-01T10:55:34;4.40;56.00
29575;DHT22;16507;51.046;6.406;2023-03-01T11:03:24;4.50;50.10
29575;DHT22;16507;51.046;6.406;2023-03-01T11:05:54;4.40;47.60
29575;DHT22;16507;51.046;6.406;2023-03-01T11:11:29;4.70;46.60
29575;DHT22;16507;51.046;6.406;2023-03-01T11:14:06;4.70;46.70
29575;DHT22;16507;51.046;6.406;2023-03-01T11:16:36;4.60;44.50
29575;DHT22;16507;51.046;6.406;2023-03-01T11:21:39;5.00;50.20
29575;DHT22;16507;51.046;6.406;2023-03-01T11:24:11;5.10;45.70
29575;DHT22;16507;51.046;6.406;2023-03-01T11:26:39;5.00;51.90
29575;DHT22;16507;51.046;6.406;2023-03-01T11:29:59;5.00;43.90
29575;DHT22;16507;51.046;6.406;2023-03-01T11:32:04;5.00;42.00
29575;DHT22;16507;51.046;6.406;2023-03-01T11:34:38;5.00;41.00
29575;DHT22;16507;51.046;6.406;2023-03-01T11:37:16;5.00;39.90
29575;DHT22;16507;51.046;6.406;2023-03-01T11:39:54;5.00;42.00
29575;DHT22;16507;51.046;6.406;2023-03-01T11:43:01;5.20;37.10
29575;DHT22;16507;51.046;6.406;2023-03-01T11:45:47;5.20;37.90
29575;DHT22;16507;51.046;6.406;2023-03-01T11:51:34;5.20;38.00
29575;DHT22;16507;51.046;6.406;2023-03-01T11:57:35;5.20;35.00
29575;DHT22;16507;51.046;6.406;2023-03-01T12:08:33;5.20;29.60
29575;DHT22;16507;51.046;6.406;2023-03-01T12:30:25;6.10;29.80
29575;DHT22;16507;51.046;6.406;2023-03-01T12:33:16;6.10;27.90
29575;DHT22;16507;51.046;6.406;2023-03-01T12:50:02;5.80;25.50
29575;DHT22;16507;51.046;6.406;2023-03-01T12:52:44;5.90;28.10
29575;DHT22;16507;51.046;6.406;2023-03-01T12:55:31;6.10;99.90
29575;DHT22;16507;51.046;6.406;2023-03-01T13:12:52;6.20;99.90
29575;DHT22;16507;51.046;6.406;2023-03-01T13:15:35;6.10;99.90
29575;DHT22;16507;51.046;6.406;2023-03-01T13:20:48;6.20;99.90
29575;DHT22;16507;51.046;6.406;2023-03-01T13:26:17;6.20;99.90
29575;DHT22;16507;51.046;6.406;2023-03-01T13:33:48;6.60;99.90
29575;DHT22;16507;51.046;6.406;2023-03-01T13:49:49;6.50;99.90
29575;DHT22;16507;51.046;6.406;2023-03-01T13:52:46;6.30;99.90
29575;DHT22;16507;51.046;6.406;2023-03-01T13:55:16;6.30;99.90
29575;DHT22;16507;51.046;6.406;2023-03-01T13:57:57;6.20;99.90
29575;DHT22;16507;51.046;6.406;2023-03-01T14:00:38;6.20;99.90
29575;DHT22;16507;51.046;6.406;2023-03-01T14:05:31;6.30;99.90
29575;DHT22;16507;51.046;6.406;2023-03-01T14:07:56;6.50;99.90
29575;DHT22;16507;51.046;6.406;2023-03-01T14:10:27;6.30;99.90
29575;DHT22;16507;51.046;6.406;2023-03-01T14:13:32;6.50;99.90
29575;DHT22;16507;51.046;6.406;2023-03-01T14:19:00;6.60;99.90
29575;DHT22;16507;51.046;6.406;2023-03-01T14:21:30;6.60;99.90
29575;DHT22;16507;51.046;6.406;2023-03-01T14:23:57;6.70;99.90
29575;DHT22;16507;51.046;6.406;2023-03-01T14:26:23;6.70;99.90
29575;DHT22;16507;51.046;6.406;2023-03-01T14:28:50;6.90;99.90
29575;DHT22;16507;51.046;6.406;2023-03-01T14:31:35;6.70;99.90
29575;DHT22;16507;51.046;6.406;2023-03-01T14:34:02;6.50;99.90
29575;DHT22;16507;51.046;6.406;2023-03-01T14:36:30;6.70;99.90
29575;DHT22;16507;51.046;6.406;2023-03-01T14:38:56;6.90;99.90
29575;DHT22;16507;51.046;6.406;2023-03-01T14:41:32;6.60;99.90
29575;DHT22;16507;51.046;6.406;2023-03-01T14:44:02;6.60;99.90
29575;DHT22;16507;51.046;6.406;2023-03-01T14:46:34;6.50;99.90
29575;DHT22;16507;51.046;6.406;2023-03-01T14:49:23;6.60;99.90
29575;DHT22;16507;51.046;6.406;2023-03-01T14:52:07;6.70;99.90
29575;DHT22;16507;51.046;6.406;2023-03-01T14:54:44;6.70;99.90
29575;DHT22;16507;51.046;6.406;2023-03-01T14:57:16;6.70;99.90
29575;DHT22;16507;51.046;6.406;2023-03-01T14:59:43;6.80;99.90
29575;DHT22;16507;51.046;6.406;2023-03-01T15:02:15;6.90;99.90
29575;DHT22;16507;51.046;6.406;2023-03-01T15:04:44;7.00;99.90
29575;DHT22;16507;51.046;6.406;2023-03-01T15:07:13;7.10;99.90
29575;DHT22;16507;51.046;6.406;2023-03-01T15:09:40;7.00;99.90
29575;DHT22;16507;51.046;6.406;2023-03-01T15:12:44;7.10;99.90
29575;DHT22;16507;51.046;6.406;2023-03-01T15:15:31;6.90;99.90
29575;DHT22;16507;51.046;6.406;2023-03-01T15:17:59;6.60;99.90
29575;DHT22;16507;51.046;6.406;2023-03-01T15:20:27;6.70;99.90
29575;DHT22;16507;51.046;6.406;2023-03-01T15:22:55;6.70;99.90
29575;DHT22;16507;51.046;6.406;2023-03-01T15:25:25;6.90;99.90
29575;DHT22;16507;51.046;6.406;2023-03-01T15:27:52;6.80;99.90
29575;DHT22;16507;51.046;6.406;2023-03-01T15:30:24;6.80;99.90
29575;DHT22;16507;51.046;6.406;2023-03-01T15:35:45;6.80;99.90
29575;DHT22;16507;51.046;6.406;2023-03-01T15:38:35;6.60;99.90
29575;DHT22;16507;51.046;6.406;2023-03-01T15:41:28;6.50;99.90
29575;DHT22;16507;51.046;6.406;2023-03-01T15:44:00;6.50;99.90
29575;DHT22;16507;51.046;6.406;2023-03-01T15:46:32;6.40;99.90
29575;DHT22;16507;51.046;6.406;2023-03-01T15:49:02;6.40;99.90
29575;DHT22;16507;51.046;6.406;2023-03-01T15:51:31;6.30;99.90
29575;DHT22;16507;51.046;6.406;2023-03-01T15:53:59;6.20;99.90
29575;DHT22;16507;51.046;6.406;2023-03-01T15:56:25;6.20;99.90
29575;DHT22;16507;51.046;6.406;2023-03-01T15:58:51;6.20;99.90
29575;DHT22;16507;51.046;6.406;2023-03-01T16:01:17;6.10;99.90
29575;DHT22;16507;51.046;6.406;2023-03-01T16:03:43;5.90;99.90
29575;DHT22;16507;51.046;6.406;2023-03-01T16:06:10;5.90;99.90
29575;DHT22;16507;51.046;6.406;2023-03-01T16:08:36;5.90;99.90
29575;DHT22;16507;51.046;6.406;2023-03-01T16:11:04;5.80;99.90
29575;DHT22;16507;51.046;6.406;2023-03-01T16:13:31;5.70;99.90
29575;DHT22;16507;51.046;6.406;2023-03-01T16:15:58;5.70;99.90
29575;DHT22;16507;51.046;6.406;2023-03-01T16:18:24;5.70;99.90
29575;DHT22;16507;51.046;6.406;2023-03-01T16:20:49;5.60;99.90
29575;DHT22;16507;51.046;6.406;2023-03-01T16:23:15;5.60;99.90
29575;DHT22;16507;51.046;6.406;2023-03-01T16:25:41;5.60;99.90
29575;DHT22;16507;51.046;6.406;2023-03-01T16:28:06;5.60;99.90
29575;DHT22;16507;51.046;6.406;2023-03-01T16:33:02;5.50;99.90
29575;DHT22;16507;51.046;6.406;2023-03-01T16:35:32;5.40;99.90
29575;DHT22;16507;51.046;6.406;2023-03-01T16:37:59;5.30;99.90
29575;DHT22;16507;51.046;6.406;2023-03-01T16:40:28;5.20;99.90
29575;DHT22;16507;51.046;6.406;2023-03-01T16:42:55;5.20;99.90
29575;DHT22;16507;51.046;6.406;2023-03-01T16:45:25;5.00;99.90
29575;DHT22;16507;51.046;6.406;2023-03-01T16:47:52;5.10;99.90
29575;DHT22;16507;51.046;6.406;2023-03-01T16:50:17;5.10;99.90
29575;DHT22;16507;51.046;6.406;2023-03-01T16:52:43;5.00;99.90
29575;DHT22;16507;51.046;6.406;2023-03-01T16:55:09;4.90;99.90
29575;DHT22;16507;51.046;6.406;2023-03-01T16:57:36;4.80;99.90
29575;DHT22;16507;51.046;6.406;2023-03-01T17:00:04;4.80;99.90
29575;DHT22;16507;51.046;6.406;2023-03-01T17:02:33;4.70;99.90
29575;DHT22;16507;51.046;6.406;2023-03-01T17:04:59;4.60;99.90
29575;DHT22;16507;51.046;6.406;2023-03-01T17:07:24;4.50;99.90
29575;DHT22;16507;51.046;6.406;2023-03-01T17:09:50;4.40;99.90
29575;DHT22;16507;51.046;6.406;2023-03-01T17:12:16;4.40;99.90
29575;DHT22;16507;51.046;6.406;2023-03-01T17:14:42;4.50;99.90
29575;DHT22;16507;51.046;6.406;2023-03-01T17:17:09;4.40;99.90
29575;DHT22;16507;51.046;6.406;2023-03-01T17:19:35;4.40;99.90
29575;DHT22;16507;51.046;6.406;2023-03-01T17:22:05;4.40;99.90
29575;DHT22;16507;51.046;6.406;2023-03-01T17:24:34;4.30;99.90
29575;DHT22;16507;51.046;6.406;2023-03-01T17:27:00;4.30;99.90
29575;DHT22;16507;51.046;6.406;2023-03-01T17:29:26;4.20;99.90
29575;DHT22;16507;51.046;6.406;2023-03-01T17:31:52;4.10;99.90
29575;DHT22;16507;51.046;6.406;2023-03-01T17:34:20;4.10;99.90
29575;DHT22;16507;51.046;6.406;2023-03-01T17:36:45;4.00;99.90
29575;DHT22;16507;51.046;6.406;2023-03-01T17:39:12;3.90;99.90
29575;DHT22;16507;51.046;6.406;2023-03-01T17:41:38;3.90;99.90
29575;DHT22;16507;51.046;6.406;2023-03-01T17:44:03;3.90;99.90
29575;DHT22;16507;51.046;6.406;2023-03-01T17:46:29;3.80;99.90
29575;DHT22;16507;51.046;6.406;2023-03-01T17:48:55;3.70;99.90
29575;DHT22;16507;51.046;6.406;2023-03-01T17:51:20;3.70;99.90
29575;DHT22;16507;51.046;6.406;2023-03-01T17:53:46;3.60;99.90
29575;DHT22;16507;51.046;6.406;2023-03-01T17:56:12;3.60;99.90
29575;DHT22;16507;51.046;6.406;2023-03-01T17:58:37;3.60;99.90
29575;DHT22;16507;51.046;6.406;2023-03-01T18:01:13;3.50;99.90
29575;DHT22;16507;51.046;6.406;2023-03-01T18:03:39;3.40;99.90
29575;DHT22;16507;51.046;6.406;2023-03-01T18:06:17;3.40;99.90
29575;DHT22;16507;51.046;6.406;2023-03-01T18:08:44;3.40;99.90
29575;DHT22;16507;51.046;6.406;2023-03-01T18:11:12;3.30;99.90
29575;DHT22;16507;51.046;6.406;2023-03-01T18:13:39;3.30;99.90